Leetonia, Minnesota
Current Conditions -  °F | °C
As of 8:53 PM on Monday 20 Oct 2014 (Local Time) from KHIB Reporting Station
Overcast Overcast  
Wind Chill: 46°   Ceiling: 2600
Heat Index: 46°   Visibility: 10mi
Dew Point: 35°   Wind: 3mph
Humidity: 66%   Direction: 30°NNE
Pressure: 30.1"   Gusts: NA
Location:  47.4158°N, 93.0053°W
Report Text: KHIB 210153Z AUTO 03003KT 10SM OVC026 08/02 A3010 RMK AO2 SLP202 T00780017
Loading
Personal Weather Stations






























Interactive Weather Map
Tropical Storm Tracking
New forecast layout! Learn more

10-Day Weather Forecast

Advertisements
Track Severe Weather on mobile